sensor_id;sensor_type;location;lat;lon;timestamp;pressure;altitude;pressure_sealevel;temperature;humidity
60874;BME280;46715;40.642;-7.920;2023-04-27T00:01:14;96137.75;;;19.42;62.78
60874;BME280;46715;40.642;-7.920;2023-04-27T00:03:15;96138.38;;;19.39;63.41
60874;BME280;46715;40.642;-7.920;2023-04-27T00:05:16;96142.00;;;19.34;63.86
60874;BME280;46715;40.642;-7.920;2023-04-27T00:07:17;96138.91;;;19.32;64.15
60874;BME280;46715;40.642;-7.920;2023-04-27T00:09:19;96131.38;;;19.22;64.79
60874;BME280;46715;40.642;-7.920;2023-04-27T00:11:20;96132.38;;;19.17;65.04
60874;BME280;46715;40.642;-7.920;2023-04-27T00:13:21;96129.94;;;19.12;65.25
60874;BME280;46715;40.642;-7.920;2023-04-27T00:15:22;96134.84;;;19.01;65.50
60874;BME280;46715;40.642;-7.920;2023-04-27T00:17:23;96139.34;;;19.01;65.49
60874;BME280;46715;40.642;-7.920;2023-04-27T00:19:24;96134.91;;;18.93;65.44
60874;BME280;46715;40.642;-7.920;2023-04-27T00:21:25;96134.03;;;18.88;65.83
60874;BME280;46715;40.642;-7.920;2023-04-27T00:23:26;96131.53;;;18.83;66.20
60874;BME280;46715;40.642;-7.920;2023-04-27T00:25:27;96122.72;;;18.79;65.91
60874;BME280;46715;40.642;-7.920;2023-04-27T00:27:28;96124.25;;;18.80;66.21
60874;BME280;46715;40.642;-7.920;2023-04-27T00:29:29;96125.59;;;18.86;66.02
60874;BME280;46715;40.642;-7.920;2023-04-27T00:31:31;96123.50;;;18.80;66.23
60874;BME280;46715;40.642;-7.920;2023-04-27T00:33:32;96126.47;;;18.78;65.93
60874;BME280;46715;40.642;-7.920;2023-04-27T00:35:33;96125.25;;;18.76;66.22
60874;BME280;46715;40.642;-7.920;2023-04-27T00:37:34;96124.44;;;18.75;66.35
60874;BME280;46715;40.642;-7.920;2023-04-27T00:39:36;96115.91;;;18.78;66.34
60874;BME280;46715;40.642;-7.920;2023-04-27T00:41:38;96117.75;;;18.78;66.46
60874;BME280;46715;40.642;-7.920;2023-04-27T00:43:43;96126.00;;;18.76;66.63
60874;BME280;46715;40.642;-7.920;2023-04-27T00:45:45;96122.94;;;18.74;66.64
60874;BME280;46715;40.642;-7.920;2023-04-27T00:47:46;96114.69;;;18.76;66.72
60874;BME280;46715;40.642;-7.920;2023-04-27T00:49:49;96101.91;;;18.78;66.71
60874;BME280;46715;40.642;-7.920;2023-04-27T00:51:50;96110.28;;;18.80;66.47
60874;BME280;46715;40.642;-7.920;2023-04-27T00:53:51;96117.56;;;18.83;66.20
60874;BME280;46715;40.642;-7.920;2023-04-27T00:55:52;96114.13;;;18.82;66.35
60874;BME280;46715;40.642;-7.920;2023-04-27T00:57:56;96102.47;;;18.83;66.50
60874;BME280;46715;40.642;-7.920;2023-04-27T01:00:00;96108.84;;;18.82;67.00
60874;BME280;46715;40.642;-7.920;2023-04-27T01:02:05;96104.72;;;18.72;68.15
60874;BME280;46715;40.642;-7.920;2023-04-27T01:04:05;96103.41;;;18.66;68.35
60874;BME280;46715;40.642;-7.920;2023-04-27T01:06:11;96114.28;;;18.65;68.42
60874;BME280;46715;40.642;-7.920;2023-04-27T01:08:11;96127.22;;;18.79;69.15
60874;BME280;46715;40.642;-7.920;2023-04-27T01:10:13;96118.41;;;18.74;69.23
60874;BME280;46715;40.642;-7.920;2023-04-27T01:12:15;96115.91;;;18.78;68.85
60874;BME280;46715;40.642;-7.920;2023-04-27T01:14:17;96103.84;;;18.68;69.07
60874;BME280;46715;40.642;-7.920;2023-04-27T01:16:18;96088.97;;;18.64;68.96
60874;BME280;46715;40.642;-7.920;2023-04-27T01:18:19;96089.72;;;18.64;68.43
60874;BME280;46715;40.642;-7.920;2023-04-27T01:20:20;96091.94;;;18.62;68.32
60874;BME280;46715;40.642;-7.920;2023-04-27T01:22:21;96097.22;;;18.62;68.17
60874;BME280;46715;40.642;-7.920;2023-04-27T01:24:22;96094.50;;;18.71;68.43
60874;BME280;46715;40.642;-7.920;2023-04-27T01:26:23;96097.28;;;18.74;67.69
60874;BME280;46715;40.642;-7.920;2023-04-27T01:28:24;96084.81;;;18.75;67.72
60874;BME280;46715;40.642;-7.920;2023-04-27T01:30:25;96076.78;;;18.71;66.94
60874;BME280;46715;40.642;-7.920;2023-04-27T01:32:28;96078.97;;;18.69;66.67
60874;BME280;46715;40.642;-7.920;2023-04-27T01:34:28;96063.03;;;18.66;66.72
60874;BME280;46715;40.642;-7.920;2023-04-27T01:36:29;96054.19;;;18.62;66.76
60874;BME280;46715;40.642;-7.920;2023-04-27T01:38:32;96044.47;;;18.53;66.76
60874;BME280;46715;40.642;-7.920;2023-04-27T01:40:33;96040.53;;;18.60;66.74
60874;BME280;46715;40.642;-7.920;2023-04-27T01:42:34;96026.31;;;18.52;65.98
60874;BME280;46715;40.642;-7.920;2023-04-27T01:44:35;96032.38;;;18.52;64.34
60874;BME280;46715;40.642;-7.920;2023-04-27T01:46:36;96038.03;;;18.63;63.68
60874;BME280;46715;40.642;-7.920;2023-04-27T01:48:37;96046.56;;;18.81;62.92
60874;BME280;46715;40.642;-7.920;2023-04-27T01:50:38;96039.53;;;18.85;62.58
60874;BME280;46715;40.642;-7.920;2023-04-27T01:52:40;96045.75;;;18.89;62.60
60874;BME280;46715;40.642;-7.920;2023-04-27T01:54:41;96044.44;;;18.96;62.66
60874;BME280;46715;40.642;-7.920;2023-04-27T01:56:41;96049.84;;;18.99;62.41
60874;BME280;46715;40.642;-7.920;2023-04-27T01:58:43;96044.19;;;18.88;63.31
60874;BME280;46715;40.642;-7.920;2023-04-27T02:00:43;96045.09;;;18.71;64.69
60874;BME280;46715;40.642;-7.920;2023-04-27T02:02:44;96041.94;;;18.57;65.20
60874;BME280;46715;40.642;-7.920;2023-04-27T02:04:46;96023.22;;;18.50;65.16
60874;BME280;46715;40.642;-7.920;2023-04-27T02:06:47;96028.06;;;18.48;65.07
60874;BME280;46715;40.642;-7.920;2023-04-27T02:08:48;96033.22;;;18.44;64.75
60874;BME280;46715;40.642;-7.920;2023-04-27T02:10:49;96025.09;;;18.49;65.06
60874;BME280;46715;40.642;-7.920;2023-04-27T02:12:51;96034.03;;;18.57;65.52
60874;BME280;46715;40.642;-7.920;2023-04-27T02:14:53;96030.63;;;18.56;65.42
60874;BME280;46715;40.642;-7.920;2023-04-27T02:16:54;96032.38;;;18.52;63.75
60874;BME280;46715;40.642;-7.920;2023-04-27T02:18:56;96035.44;;;18.54;63.64
60874;BME280;46715;40.642;-7.920;2023-04-27T02:20:58;96038.41;;;18.53;64.30
60874;BME280;46715;40.642;-7.920;2023-04-27T02:22:59;96039.81;;;18.50;64.36
60874;BME280;46715;40.642;-7.920;2023-04-27T02:25:02;96033.13;;;18.53;63.97
60874;BME280;46715;40.642;-7.920;2023-04-27T02:27:03;96038.09;;;18.54;64.15
60874;BME280;46715;40.642;-7.920;2023-04-27T02:29:04;96034.25;;;18.52;63.91
60874;BME280;46715;40.642;-7.920;2023-04-27T02:31:05;96030.81;;;18.51;63.78
60874;BME280;46715;40.642;-7.920;2023-04-27T02:33:06;96033.03;;;18.49;63.90
60874;BME280;46715;40.642;-7.920;2023-04-27T02:35:08;96023.53;;;18.48;64.12
60874;BME280;46715;40.642;-7.920;2023-04-27T02:37:09;96021.66;;;18.49;63.77
60874;BME280;46715;40.642;-7.920;2023-04-27T02:39:10;96021.34;;;18.50;62.55
60874;BME280;46715;40.642;-7.920;2023-04-27T02:41:12;96017.28;;;18.53;61.50
60874;BME280;46715;40.642;-7.920;2023-04-27T02:43:13;96022.56;;;18.53;61.68
60874;BME280;46715;40.642;-7.920;2023-04-27T02:45:13;96021.34;;;18.50;62.55
60874;BME280;46715;40.642;-7.920;2023-04-27T02:47:15;96014.41;;;18.46;61.67
60874;BME280;46715;40.642;-7.920;2023-04-27T02:49:16;96012.22;;;18.48;60.83
60874;BME280;46715;40.642;-7.920;2023-04-27T02:51:17;96016.06;;;18.50;59.91
60874;BME280;46715;40.642;-7.920;2023-04-27T02:53:18;96010.59;;;18.55;59.66
60874;BME280;46715;40.642;-7.920;2023-04-27T02:55:20;96008.97;;;18.63;60.20
60874;BME280;46715;40.642;-7.920;2023-04-27T02:57:21;96002.16;;;18.62;60.47
60874;BME280;46715;40.642;-7.920;2023-04-27T02:59:22;96011.44;;;18.47;62.29
60874;BME280;46715;40.642;-7.920;2023-04-27T03:01:23;96014.91;;;18.39;62.39
60874;BME280;46715;40.642;-7.920;2023-04-27T03:03:24;96015.91;;;18.34;63.36
60874;BME280;46715;40.642;-7.920;2023-04-27T03:05:25;96016.22;;;18.33;63.56
60874;BME280;46715;40.642;-7.920;2023-04-27T03:07:28;96018.84;;;18.33;63.55
60874;BME280;46715;40.642;-7.920;2023-04-27T03:09:30;96025.22;;;18.32;63.92
60874;BME280;46715;40.642;-7.920;2023-04-27T03:11:32;96022.25;;;18.33;63.79
60874;BME280;46715;40.642;-7.920;2023-04-27T03:13:32;96022.25;;;18.33;64.43
60874;BME280;46715;40.642;-7.920;2023-04-27T03:15:40;96022.16;;;18.30;64.98
60874;BME280;46715;40.642;-7.920;2023-04-27T03:17:41;96024.66;;;18.26;64.81
60874;BME280;46715;40.642;-7.920;2023-04-27T03:19:42;96021.25;;;18.26;64.78
60874;BME280;46715;40.642;-7.920;2023-04-27T03:21:43;96024.06;;;18.20;64.80
60874;BME280;46715;40.642;-7.920;2023-04-27T03:23:44;96015.38;;;18.20;64.26
60874;BME280;46715;40.642;-7.920;2023-04-27T03:25:45;96013.06;;;18.18;63.55
60874;BME280;46715;40.642;-7.920;2023-04-27T03:27:48;96015.69;;;18.18;63.44
60874;BME280;46715;40.642;-7.920;2023-04-27T03:29:50;96015.06;;;18.21;63.44
60874;BME280;46715;40.642;-7.920;2023-04-27T03:31:53;96012.44;;;18.21;63.23
60874;BME280;46715;40.642;-7.920;2023-04-27T03:33:54;96019.03;;;18.28;63.92
60874;BME280;46715;40.642;-7.920;2023-04-27T03:35:57;96014.22;;;18.30;64.07
60874;BME280;46715;40.642;-7.920;2023-04-27T03:37:57;96008.38;;;18.24;64.43
60874;BME280;46715;40.642;-7.920;2023-04-27T03:39:58;96001.41;;;18.19;64.30
60874;BME280;46715;40.642;-7.920;2023-04-27T03:41:59;96006.44;;;18.12;64.49
60874;BME280;46715;40.642;-7.920;2023-04-27T03:44:02;95998.69;;;18.07;65.10
60874;BME280;46715;40.642;-7.920;2023-04-27T03:46:03;96003.06;;;18.03;64.82
60874;BME280;46715;40.642;-7.920;2023-04-27T03:48:04;96006.03;;;18.01;64.94
60874;BME280;46715;40.642;-7.920;2023-04-27T03:50:09;96013.31;;;18.04;64.93
60874;BME280;46715;40.642;-7.920;2023-04-27T03:52:10;96003.66;;;18.09;64.67
60874;BME280;46715;40.642;-7.920;2023-04-27T03:54:10;96003.97;;;18.07;64.55
60874;BME280;46715;40.642;-7.920;2023-04-27T03:56:12;96007.25;;;18.04;65.09
60874;BME280;46715;40.642;-7.920;2023-04-27T03:58:13;96017.06;;;18.03;65.19
60874;BME280;46715;40.642;-7.920;2023-04-27T04:00:33;96007.41;;;18.08;65.45
60874;BME280;46715;40.642;-7.920;2023-04-27T04:02:34;96011.47;;;18.05;65.71
60874;BME280;46715;40.642;-7.920;2023-04-27T04:04:37;96008.81;;;18.05;65.98
60874;BME280;46715;40.642;-7.920;2023-04-27T04:06:37;95996.72;;;18.04;66.34
60874;BME280;46715;40.642;-7.920;2023-04-27T04:08:38;96007.41;;;18.08;65.71
60874;BME280;46715;40.642;-7.920;2023-04-27T04:10:39;95998.38;;;18.09;64.92
60874;BME280;46715;40.642;-7.920;2023-04-27T04:12:40;96003.53;;;18.05;65.19
60874;BME280;46715;40.642;-7.920;2023-04-27T04:14:41;96005.59;;;17.99;65.65
60874;BME280;46715;40.642;-7.920;2023-04-27T04:16:42;95990.59;;;17.91;65.83
60874;BME280;46715;40.642;-7.920;2023-04-27T04:18:43;95992.41;;;17.90;65.64
60874;BME280;46715;40.642;-7.920;2023-04-27T04:20:44;95995.38;;;17.89;65.73
60874;BME280;46715;40.642;-7.920;2023-04-27T04:22:45;95999.41;;;17.95;66.09
60874;BME280;46715;40.642;-7.920;2023-04-27T04:24:46;95996.72;;;18.04;64.35
60874;BME280;46715;40.642;-7.920;2023-04-27T04:26:47;95993.16;;;18.00;63.79
60874;BME280;46715;40.642;-7.920;2023-04-27T04:28:48;95987.13;;;17.90;64.31
60874;BME280;46715;40.642;-7.920;2023-04-27T04:30:49;95987.34;;;17.85;65.01
60874;BME280;46715;40.642;-7.920;2023-04-27T04:32:51;95989.72;;;17.78;65.45
60874;BME280;46715;40.642;-7.920;2023-04-27T04:34:52;95988.03;;;17.73;65.81
60874;BME280;46715;40.642;-7.920;2023-04-27T04:36:55;95982.63;;;17.70;65.91
60874;BME280;46715;40.642;-7.920;2023-04-27T04:38:57;95990.84;;;17.68;65.98
60874;BME280;46715;40.642;-7.920;2023-04-27T04:41:00;95992.41;;;17.69;66.55
60874;BME280;46715;40.642;-7.920;2023-04-27T04:43:01;95988.81;;;17.74;67.13
60874;BME280;46715;40.642;-7.920;2023-04-27T04:45:02;95989.13;;;17.72;67.41
60874;BME280;46715;40.642;-7.920;2023-04-27T04:47:03;95986.69;;;17.67;67.51
60874;BME280;46715;40.642;-7.920;2023-04-27T04:49:04;95981.41;;;17.67;67.24
60874;BME280;46715;40.642;-7.920;2023-04-27T04:51:07;95980.50;;;17.63;67.39
60874;BME280;46715;40.642;-7.920;2023-04-27T04:53:09;95979.28;;;17.61;67.23
60874;BME280;46715;40.642;-7.920;2023-04-27T04:55:10;95984.06;;;17.59;67.44
60874;BME280;46715;40.642;-7.920;2023-04-27T04:57:11;95975.88;;;17.60;67.66
60874;BME280;46715;40.642;-7.920;2023-04-27T04:59:12;95984.53;;;17.61;67.98
60874;BME280;46715;40.642;-7.920;2023-04-27T05:01:12;95992.13;;;17.62;67.88
60874;BME280;46715;40.642;-7.920;2023-04-27T05:03:13;95983.78;;;17.60;67.89
60874;BME280;46715;40.642;-7.920;2023-04-27T05:05:14;95981.91;;;17.61;67.54
60874;BME280;46715;40.642;-7.920;2023-04-27T05:07:15;95985.44;;;17.65;67.59
60874;BME280;46715;40.642;-7.920;2023-04-27T05:09:16;95984.81;;;17.68;67.62
60874;BME280;46715;40.642;-7.920;2023-04-27T05:11:17;95997.03;;;17.72;67.36
60874;BME280;46715;40.642;-7.920;2023-04-27T05:13:19;95999.81;;;17.76;66.83
60874;BME280;46715;40.642;-7.920;2023-04-27T05:15:20;96009.59;;;17.76;67.40
60874;BME280;46715;40.642;-7.920;2023-04-27T05:17:21;96001.69;;;17.76;67.53
60874;BME280;46715;40.642;-7.920;2023-04-27T05:19:22;96008.81;;;17.75;67.56
60874;BME280;46715;40.642;-7.920;2023-04-27T05:21:23;96000.13;;;17.75;67.31
60874;BME280;46715;40.642;-7.920;2023-04-27T05:23:23;95999.47;;;17.78;67.37
60874;BME280;46715;40.642;-7.920;2023-04-27T05:25:35;95999.47;;;17.78;67.27
60874;BME280;46715;40.642;-7.920;2023-04-27T05:27:41;96003.78;;;17.82;67.50
60874;BME280;46715;40.642;-7.920;2023-04-27T05:29:42;96007.97;;;17.83;67.58
60874;BME280;46715;40.642;-7.920;2023-04-27T05:31:42;95997.91;;;17.85;67.56
60874;BME280;46715;40.642;-7.920;2023-04-27T05:33:43;95996.34;;;17.84;67.69
60874;BME280;46715;40.642;-7.920;2023-04-27T05:35:44;95995.63;;;17.75;68.18
60874;BME280;46715;40.642;-7.920;2023-04-27T05:37:45;95999.47;;;17.78;68.11
60874;BME280;46715;40.642;-7.920;2023-04-27T05:39:45;96006.00;;;17.80;67.58
60874;BME280;46715;40.642;-7.920;2023-04-27T05:41:46;96003.50;;;17.84;67.30
60874;BME280;46715;40.642;-7.920;2023-04-27T05:43:47;96005.50;;;17.87;67.21
60874;BME280;46715;40.642;-7.920;2023-04-27T05:45:48;95997.56;;;17.87;67.12
60874;BME280;46715;40.642;-7.920;2023-04-27T05:47:49;96000.97;;;17.87;67.15
60874;BME280;46715;40.642;-7.920;2023-04-27T05:49:50;96003.94;;;17.86;66.49
60874;BME280;46715;40.642;-7.920;2023-04-27T05:51:52;96010.13;;;17.90;66.05
60874;BME280;46715;40.642;-7.920;2023-04-27T05:53:53;96008.56;;;17.89;65.95
60874;BME280;46715;40.642;-7.920;2023-04-27T05:55:55;96003.78;;;17.91;65.95
60874;BME280;46715;40.642;-7.920;2023-04-27T05:57:56;95994.25;;;17.99;65.34
60874;BME280;46715;40.642;-7.920;2023-04-27T05:59:57;95993.31;;;18.03;64.73
60874;BME280;46715;40.642;-7.920;2023-04-27T06:01:58;96005.19;;;18.10;64.74
60874;BME280;46715;40.642;-7.920;2023-04-27T06:03:59;95996.31;;;18.14;63.83
60874;BME280;46715;40.642;-7.920;2023-04-27T06:06:00;95997.09;;;18.15;63.76
60874;BME280;46715;40.642;-7.920;2023-04-27T06:08:02;96009.66;;;18.18;63.70
60874;BME280;46715;40.642;-7.920;2023-04-27T06:10:03;96009.47;;;18.23;63.86
60874;BME280;46715;40.642;-7.920;2023-04-27T06:12:05;96006.50;;;18.25;64.54
60874;BME280;46715;40.642;-7.920;2023-04-27T06:14:06;96008.16;;;18.29;64.70
60874;BME280;46715;40.642;-7.920;2023-04-27T06:16:07;96009.06;;;18.33;64.98
60874;BME280;46715;40.642;-7.920;2023-04-27T06:18:08;96007.78;;;18.39;65.12
60874;BME280;46715;40.642;-7.920;2023-04-27T06:20:09;96007.13;;;18.43;65.15
60874;BME280;46715;40.642;-7.920;2023-04-27T06:22:11;96006.47;;;18.46;64.82
60874;BME280;46715;40.642;-7.920;2023-04-27T06:24:12;96002.00;;;18.46;65.01
60874;BME280;46715;40.642;-7.920;2023-04-27T06:26:17;96014.31;;;18.54;64.72
60874;BME280;46715;40.642;-7.920;2023-04-27T06:28:18;96002.47;;;18.61;64.37
60874;BME280;46715;40.642;-7.920;2023-04-27T06:30:19;96010.31;;;18.69;64.71
60874;BME280;46715;40.642;-7.920;2023-04-27T06:32:20;96004.97;;;18.78;64.30
60874;BME280;46715;40.642;-7.920;2023-04-27T06:34:22;96005.19;;;18.85;64.32
60874;BME280;46715;40.642;-7.920;2023-04-27T06:36:24;96012.00;;;18.86;64.67
60874;BME280;46715;40.642;-7.920;2023-04-27T06:38:26;96018.41;;;18.85;66.45
60874;BME280;46715;40.642;-7.920;2023-04-27T06:40:28;96019.38;;;18.81;66.56
60874;BME280;46715;40.642;-7.920;2023-04-27T06:42:29;96022.28;;;18.88;66.52
60874;BME280;46715;40.642;-7.920;2023-04-27T06:44:30;96018.47;;;18.98;66.51
60874;BME280;46715;40.642;-7.920;2023-04-27T06:46:30;96025.31;;;19.11;66.49
60874;BME280;46715;40.642;-7.920;2023-04-27T06:48:31;96034.03;;;19.24;66.60
60874;BME280;46715;40.642;-7.920;2023-04-27T06:50:32;96035.25;;;19.39;66.33
60874;BME280;46715;40.642;-7.920;2023-04-27T06:52:33;96032.28;;;19.65;63.56
60874;BME280;46715;40.642;-7.920;2023-04-27T06:54:34;96035.28;;;19.76;62.64
60874;BME280;46715;40.642;-7.920;2023-04-27T06:56:35;96033.66;;;19.84;62.09
60874;BME280;46715;40.642;-7.920;2023-04-27T06:58:37;96031.31;;;19.95;62.21
60874;BME280;46715;40.642;-7.920;2023-04-27T07:00:38;96049.59;;;20.12;63.97
60874;BME280;46715;40.642;-7.920;2023-04-27T07:02:39;96055.44;;;20.18;64.96
60874;BME280;46715;40.642;-7.920;2023-04-27T07:04:40;96055.28;;;20.26;65.04
60874;BME280;46715;40.642;-7.920;2023-04-27T07:06:43;96057.34;;;20.46;63.53
60874;BME280;46715;40.642;-7.920;2023-04-27T07:08:44;96063.06;;;20.60;62.30
60874;BME280;46715;40.642;-7.920;2023-04-27T07:10:47;96058.69;;;20.80;61.01
60874;BME280;46715;40.642;-7.920;2023-04-27T07:12:48;96065.75;;;21.04;60.60
60874;BME280;46715;40.642;-7.920;2023-04-27T07:14:49;96065.34;;;21.18;60.27
60874;BME280;46715;40.642;-7.920;2023-04-27T07:16:50;96061.09;;;21.29;60.77
60874;BME280;46715;40.642;-7.920;2023-04-27T07:18:51;96047.31;;;21.40;60.87
60874;BME280;46715;40.642;-7.920;2023-04-27T07:20:53;96047.34;;;21.56;60.75
60874;BME280;46715;40.642;-7.920;2023-04-27T07:22:55;96051.34;;;21.82;60.00
60874;BME280;46715;40.642;-7.920;2023-04-27T07:24:56;96055.25;;;22.39;56.86
60874;BME280;46715;40.642;-7.920;2023-04-27T07:26:57;96046.22;;;23.26;48.88
60874;BME280;46715;40.642;-7.920;2023-04-27T07:28:58;96047.50;;;24.09;46.40
60874;BME280;46715;40.642;-7.920;2023-04-27T07:31:02;96045.69;;;24.77;43.20
60874;BME280;46715;40.642;-7.920;2023-04-27T07:33:04;96048.47;;;25.78;41.68
60874;BME280;46715;40.642;-7.920;2023-04-27T07:35:05;96037.56;;;26.71;39.35
60874;BME280;46715;40.642;-7.920;2023-04-27T07:37:06;96033.84;;;27.66;36.93
60874;BME280;46715;40.642;-7.920;2023-04-27T07:39:09;96025.91;;;28.69;35.10
60874;BME280;46715;40.642;-7.920;2023-04-27T07:41:10;96028.25;;;29.19;35.07
60874;BME280;46715;40.642;-7.920;2023-04-27T07:43:12;96032.75;;;29.40;33.58
60874;BME280;46715;40.642;-7.920;2023-04-27T07:45:13;96032.19;;;29.07;33.49
60874;BME280;46715;40.642;-7.920;2023-04-27T07:47:15;96035.44;;;28.77;33.89
60874;BME280;46715;40.642;-7.920;2023-04-27T07:49:20;96034.34;;;28.71;32.95
60874;BME280;46715;40.642;-7.920;2023-04-27T07:51:21;96031.50;;;27.79;34.62
60874;BME280;46715;40.642;-7.920;2023-04-27T07:53:22;96027.84;;;28.57;33.83
60874;BME280;46715;40.642;-7.920;2023-04-27T07:55:24;96033.41;;;29.97;32.63
60874;BME280;46715;40.642;-7.920;2023-04-27T07:57:25;96037.63;;;31.22;31.03
60874;BME280;46715;40.642;-7.920;2023-04-27T07:59:28;96029.38;;;32.44;28.90
60874;BME280;46715;40.642;-7.920;2023-04-27T08:01:32;96031.66;;;33.35;28.12
60874;BME280;46715;40.642;-7.920;2023-04-27T08:03:35;96027.66;;;34.31;26.82
60874;BME280;46715;40.642;-7.920;2023-04-27T08:05:36;96039.03;;;34.94;25.82
60874;BME280;46715;40.642;-7.920;2023-04-27T08:07:39;96032.06;;;35.45;25.19
60874;BME280;46715;40.642;-7.920;2023-04-27T08:09:40;96035.66;;;35.77;24.63
60874;BME280;46715;40.642;-7.920;2023-04-27T08:11:47;96025.09;;;36.14;24.23
60874;BME280;46715;40.642;-7.920;2023-04-27T08:14:26;96016.38;;;36.19;23.11
60874;BME280;46715;40.642;-7.920;2023-04-27T08:16:26;96017.63;;;36.49;22.91
60874;BME280;46715;40.642;-7.920;2023-04-27T08:18:27;96016.59;;;36.56;22.91
60874;BME280;46715;40.642;-7.920;2023-04-27T08:20:28;96021.16;;;36.37;23.49
60874;BME280;46715;40.642;-7.920;2023-04-27T08:22:30;96031.47;;;36.42;23.24
60874;BME280;46715;40.642;-7.920;2023-04-27T08:24:31;96031.47;;;36.74;23.45
60874;BME280;46715;40.642;-7.920;2023-04-27T08:26:32;96034.56;;;36.85;23.38
60874;BME280;46715;40.642;-7.920;2023-04-27T08:28:34;96040.88;;;37.23;22.87
60874;BME280;46715;40.642;-7.920;2023-04-27T08:30:36;96037.38;;;37.13;23.23
60874;BME280;46715;40.642;-7.920;2023-04-27T08:32:37;96049.41;;;37.52;23.49
60874;BME280;46715;40.642;-7.920;2023-04-27T08:34:38;96039.56;;;37.55;23.26
60874;BME280;46715;40.642;-7.920;2023-04-27T08:36:39;96045.31;;;37.39;23.78
60874;BME280;46715;40.642;-7.920;2023-04-27T08:38:40;96044.25;;;36.95;23.65
60874;BME280;46715;40.642;-7.920;2023-04-27T08:40:42;96044.34;;;37.23;23.26
60874;BME280;46715;40.642;-7.920;2023-04-27T08:42:54;96056.06;;;36.39;23.51
60874;BME280;46715;40.642;-7.920;2023-04-27T08:44:55;96056.41;;;36.06;23.66
60874;BME280;46715;40.642;-7.920;2023-04-27T08:46:56;96050.63;;;35.81;23.70
60874;BME280;46715;40.642;-7.920;2023-04-27T08:48:57;96051.44;;;35.56;23.52
60874;BME280;46715;40.642;-7.920;2023-04-27T08:50:58;96049.09;;;34.94;24.31
60874;BME280;46715;40.642;-7.920;2023-04-27T08:53:19;96052.16;;;35.82;23.20
60874;BME280;46715;40.642;-7.920;2023-04-27T08:55:21;96057.34;;;36.56;22.72
60874;BME280;46715;40.642;-7.920;2023-04-27T08:57:23;96040.19;;;36.68;22.80
60874;BME280;46715;40.642;-7.920;2023-04-27T08:59:24;96052.44;;;37.55;21.81
60874;BME280;46715;40.642;-7.920;2023-04-27T09:01:25;96045.50;;;37.63;21.50
60874;BME280;46715;40.642;-7.920;2023-04-27T09:03:26;96060.34;;;38.08;21.08
60874;BME280;46715;40.642;-7.920;2023-04-27T09:05:29;96057.16;;;38.28;21.02
60874;BME280;46715;40.642;-7.920;2023-04-27T09:07:30;96057.88;;;37.73;19.05
60874;BME280;46715;40.642;-7.920;2023-04-27T09:09:31;96047.00;;;37.73;18.04
60874;BME280;46715;40.642;-7.920;2023-04-27T09:11:37;96047.34;;;38.03;18.12
60874;BME280;46715;40.642;-7.920;2023-04-27T09:13:44;96052.25;;;38.51;17.15
60874;BME280;46715;40.642;-7.920;2023-04-27T09:15:47;96046.97;;;38.47;16.62
60874;BME280;46715;40.642;-7.920;2023-04-27T09:17:54;96046.97;;;38.99;17.40
60874;BME280;46715;40.642;-7.920;2023-04-27T09:20:06;96044.34;;;39.14;17.03
60874;BME280;46715;40.642;-7.920;2023-04-27T09:22:12;96050.75;;;39.60;16.77
60874;BME280;46715;40.642;-7.920;2023-04-27T09:24:14;96041.63;;;39.14;16.52
60874;BME280;46715;40.642;-7.920;2023-04-27T09:26:26;96038.50;;;39.31;15.51
60874;BME280;46715;40.642;-7.920;2023-04-27T09:28:27;96030.66;;;38.38;16.96
60874;BME280;46715;40.642;-7.920;2023-04-27T09:30:29;96030.69;;;38.10;16.33
60874;BME280;46715;40.642;-7.920;2023-04-27T09:32:30;96032.19;;;38.11;15.94
60874;BME280;46715;40.642;-7.920;2023-04-27T09:34:38;96031.00;;;38.12;16.07
60874;BME280;46715;40.642;-7.920;2023-04-27T09:36:43;96029.47;;;37.65;16.50
60874;BME280;46715;40.642;-7.920;2023-04-27T09:38:50;96038.03;;;37.35;17.29
60874;BME280;46715;40.642;-7.920;2023-04-27T09:40:53;96034.03;;;37.09;17.35
60874;BME280;46715;40.642;-7.920;2023-04-27T09:42:57;96042.19;;;37.86;16.93
60874;BME280;46715;40.642;-7.920;2023-04-27T09:45:02;96038.63;;;38.51;17.05
60874;BME280;46715;40.642;-7.920;2023-04-27T09:47:04;96037.22;;;38.65;17.52
60874;BME280;46715;40.642;-7.920;2023-04-27T09:49:09;96037.97;;;37.85;17.28
60874;BME280;46715;40.642;-7.920;2023-04-27T09:51:13;96034.34;;;36.39;18.91
60874;BME280;46715;40.642;-7.920;2023-04-27T09:53:17;96032.22;;;36.74;18.60
60874;BME280;46715;40.642;-7.920;2023-04-27T09:55:23;96031.81;;;37.26;18.89
60874;BME280;46715;40.642;-7.920;2023-04-27T09:58:28;96026.31;;;38.03;18.36
60874;BME280;46715;40.642;-7.920;2023-04-27T10:00:39;96019.22;;;38.67;17.47
60874;BME280;46715;40.642;-7.920;2023-04-27T10:07:39;96020.50;;;39.72;16.69
60874;BME280;46715;40.642;-7.920;2023-04-27T10:09:48;96033.28;;;39.66;16.19
60874;BME280;46715;40.642;-7.920;2023-04-27T10:11:53;96013.31;;;38.69;16.19
60874;BME280;46715;40.642;-7.920;2023-04-27T10:13:55;96023.41;;;37.61;17.48
60874;BME280;46715;40.642;-7.920;2023-04-27T10:15:55;96024.34;;;37.48;17.06
60874;BME280;46715;40.642;-7.920;2023-04-27T10:18:03;96019.03;;;38.10;16.35
60874;BME280;46715;40.642;-7.920;2023-04-27T10:20:05;96022.53;;;38.81;16.12
60874;BME280;46715;40.642;-7.920;2023-04-27T10:22:07;96018.41;;;38.33;15.79
60874;BME280;46715;40.642;-7.920;2023-04-27T10:24:08;96025.97;;;38.20;15.62
60874;BME280;46715;40.642;-7.920;2023-04-27T10:26:09;96024.47;;;36.63;16.33
60874;BME280;46715;40.642;-7.920;2023-04-27T10:28:15;96028.59;;;36.68;16.87
60874;BME280;46715;40.642;-7.920;2023-04-27T10:30:18;96034.81;;;36.02;16.56
60874;BME280;46715;40.642;-7.920;2023-04-27T10:32:23;96033.59;;;36.25;16.61
60874;BME280;46715;40.642;-7.920;2023-04-27T10:34:26;96040.72;;;35.53;16.09
60874;BME280;46715;40.642;-7.920;2023-04-27T10:36:36;96045.81;;;36.21;16.64
60874;BME280;46715;40.642;-7.920;2023-04-27T10:38:39;96046.66;;;36.62;16.01
60874;BME280;46715;40.642;-7.920;2023-04-27T10:40:43;96050.13;;;36.94;15.80
60874;BME280;46715;40.642;-7.920;2023-04-27T10:42:46;96042.63;;;36.66;16.82
60874;BME280;46715;40.642;-7.920;2023-04-27T10:44:53;96036.47;;;36.75;17.23